sensor_id;sensor_type;location;lat;lon;timestamp;pressure;altitude;pressure_sealevel;temperature;humidity
28181;BME280;15464;50.988;10.318;2022-09-16T00:00:30;98233.16;;;11.91;87.31
28181;BME280;15464;50.988;10.318;2022-09-16T00:02:57;98236.59;;;11.83;87.68
28181;BME280;15464;50.988;10.318;2022-09-16T00:05:24;98241.91;;;11.83;86.99
28181;BME280;15464;50.988;10.318;2022-09-16T00:07:51;98238.56;;;11.81;88.05
28181;BME280;15464;50.988;10.318;2022-09-16T00:10:18;98233.25;;;11.81;87.37
28181;BME280;15464;50.988;10.318;2022-09-16T00:12:45;98222.63;;;11.81;87.20
28181;BME280;15464;50.988;10.318;2022-09-16T00:15:11;98230.44;;;11.83;87.09
28181;BME280;15464;50.988;10.318;2022-09-16T00:17:38;98221.78;;;11.81;86.97
28181;BME280;15464;50.988;10.318;2022-09-16T00:20:06;98225.13;;;11.83;86.87
28181;BME280;15464;50.988;10.318;2022-09-16T00:22:34;98227.28;;;11.79;87.02
28181;BME280;15464;50.988;10.318;2022-09-16T00:25:00;98236.91;;;11.80;87.63
28181;BME280;15464;50.988;10.318;2022-09-16T00:27:27;98229.94;;;11.79;87.73
28181;BME280;15464;50.988;10.318;2022-09-16T00:29:54;98229.38;;;11.76;87.93
28181;BME280;15464;50.988;10.318;2022-09-16T00:32:20;98232.81;;;11.68;88.39
28181;BME280;15464;50.988;10.318;2022-09-16T00:34:50;98238.34;;;11.75;88.83
28181;BME280;15464;50.988;10.318;2022-09-16T00:37:17;98235.25;;;11.79;88.44
28181;BME280;15464;50.988;10.318;2022-09-16T00:39:46;98238.25;;;11.84;87.92
28181;BME280;15464;50.988;10.318;2022-09-16T00:42:14;98245.53;;;11.82;88.55
28181;BME280;15464;50.988;10.318;2022-09-16T00:45:02;98245.88;;;11.79;88.88
28181;BME280;15464;50.988;10.318;2022-09-16T00:47:56;98246.47;;;11.73;88.92
28181;BME280;15464;50.988;10.318;2022-09-16T00:50:40;98238.13;;;11.68;87.96
28181;BME280;15464;50.988;10.318;2022-09-16T00:53:14;98241.44;;;11.70;88.56
28181;BME280;15464;50.988;10.318;2022-09-16T00:55:42;98245.09;;;11.69;87.68
28181;BME280;15464;50.988;10.318;2022-09-16T00:58:18;98246.25;;;11.66;87.61
28181;BME280;15464;50.988;10.318;2022-09-16T01:00:49;98252.06;;;11.70;87.28
28181;BME280;15464;50.988;10.318;2022-09-16T01:03:16;98254.56;;;11.71;87.68
28181;BME280;15464;50.988;10.318;2022-09-16T01:05:44;98248.75;;;11.68;87.22
28181;BME280;15464;50.988;10.318;2022-09-16T01:08:12;98251.00;;;11.63;87.59
28181;BME280;15464;50.988;10.318;2022-09-16T01:10:40;98253.00;;;11.61;87.62
28181;BME280;15464;50.988;10.318;2022-09-16T01:13:09;98251.00;;;11.63;86.54
28181;BME280;15464;50.988;10.318;2022-09-16T01:16:08;98238.56;;;11.63;86.35
28181;BME280;15464;50.988;10.318;2022-09-16T01:35:23;98236.84;;;11.54;86.89
28181;BME280;15464;50.988;10.318;2022-09-16T01:46:51;98236.72;;;11.38;86.78
28181;BME280;15464;50.988;10.318;2022-09-16T01:52:19;98237.03;;;11.35;86.69
28181;BME280;15464;50.988;10.318;2022-09-16T01:57:39;98225.56;;;11.35;87.02
28181;BME280;15464;50.988;10.318;2022-09-16T02:00:11;98229.72;;;11.37;86.61
28181;BME280;15464;50.988;10.318;2022-09-16T02:03:02;98222.59;;;11.38;86.94
28181;BME280;15464;50.988;10.318;2022-09-16T02:08:09;98225.78;;;11.41;86.99
28181;BME280;15464;50.988;10.318;2022-09-16T02:10:41;98215.84;;;11.43;87.00
28181;BME280;15464;50.988;10.318;2022-09-16T02:13:19;98224.13;;;11.40;88.63
28181;BME280;15464;50.988;10.318;2022-09-16T02:15:49;98223.00;;;11.43;87.96
28181;BME280;15464;50.988;10.318;2022-09-16T02:18:22;98221.00;;;11.45;87.55
28181;BME280;15464;50.988;10.318;2022-09-16T02:20:52;98221.00;;;11.45;89.02
28181;BME280;15464;50.988;10.318;2022-09-16T02:23:26;98218.03;;;11.48;88.69
28181;BME280;15464;50.988;10.318;2022-09-16T02:25:55;98223.72;;;11.53;88.14
28181;BME280;15464;50.988;10.318;2022-09-16T02:28:31;98225.41;;;11.54;87.92
28181;BME280;15464;50.988;10.318;2022-09-16T02:31:04;98224.41;;;11.55;88.37
28181;BME280;15464;50.988;10.318;2022-09-16T02:33:36;98217.78;;;11.59;87.77
28181;BME280;15464;50.988;10.318;2022-09-16T02:36:05;98211.44;;;11.52;88.55
28181;BME280;15464;50.988;10.318;2022-09-16T02:38:39;98224.56;;;11.53;88.75
28181;BME280;15464;50.988;10.318;2022-09-16T02:41:06;98222.06;;;11.52;88.78
28181;BME280;15464;50.988;10.318;2022-09-16T02:43:40;98224.03;;;11.50;89.00
28181;BME280;15464;50.988;10.318;2022-09-16T02:49:21;98218.72;;;11.50;88.99
28181;BME280;15464;50.988;10.318;2022-09-16T02:52:21;98218.81;;;11.40;89.82
28181;BME280;15464;50.988;10.318;2022-09-16T02:55:09;98219.09;;;11.37;89.82
28181;BME280;15464;50.988;10.318;2022-09-16T02:57:38;98221.38;;;11.32;89.91
28181;BME280;15464;50.988;10.318;2022-09-16T03:00:06;98218.06;;;11.30;89.98
28181;BME280;15464;50.988;10.318;2022-09-16T03:02:33;98225.50;;;11.26;90.06
28181;BME280;15464;50.988;10.318;2022-09-16T03:05:01;98226.47;;;11.25;89.71
28181;BME280;15464;50.988;10.318;2022-09-16T03:07:29;98231.88;;;11.16;90.24
28181;BME280;15464;50.988;10.318;2022-09-16T03:09:56;98231.28;;;11.22;90.03
28181;BME280;15464;50.988;10.318;2022-09-16T03:18:21;98220.56;;;11.14;90.69
28181;BME280;15464;50.988;10.318;2022-09-16T03:24:08;98218.25;;;11.11;90.93
28181;BME280;15464;50.988;10.318;2022-09-16T03:34:39;98216.34;;;11.03;91.33
28181;BME280;15464;50.988;10.318;2022-09-16T03:37:11;98214.28;;;10.97;91.81
28181;BME280;15464;50.988;10.318;2022-09-16T03:39:40;98211.31;;;11.00;91.69
28181;BME280;15464;50.988;10.318;2022-09-16T03:42:08;98215.25;;;10.96;92.07
28181;BME280;15464;50.988;10.318;2022-09-16T03:44:38;98213.59;;;10.95;92.09
28181;BME280;15464;50.988;10.318;2022-09-16T03:47:06;98209.13;;;10.96;91.83
28181;BME280;15464;50.988;10.318;2022-09-16T03:49:34;98220.56;;;10.96;92.34
28181;BME280;15464;50.988;10.318;2022-09-16T03:52:02;98218.25;;;10.93;92.35
28181;BME280;15464;50.988;10.318;2022-09-16T03:54:31;98211.41;;;10.90;92.41
28181;BME280;15464;50.988;10.318;2022-09-16T03:56:57;98210.72;;;10.88;92.32
28181;BME280;15464;50.988;10.318;2022-09-16T03:59:26;98210.84;;;10.87;92.34
28181;BME280;15464;50.988;10.318;2022-09-16T04:01:53;98207.22;;;10.88;92.46
28181;BME280;15464;50.988;10.318;2022-09-16T04:04:20;98203.34;;;10.82;93.22
28181;BME280;15464;50.988;10.318;2022-09-16T04:06:47;98199.72;;;10.83;93.43
28181;BME280;15464;50.988;10.318;2022-09-16T04:09:13;98210.09;;;10.77;93.76
28181;BME280;15464;50.988;10.318;2022-09-16T04:11:41;98210.09;;;10.77;93.76
28181;BME280;15464;50.988;10.318;2022-09-16T04:14:07;98204.78;;;10.77;93.41
28181;BME280;15464;50.988;10.318;2022-09-16T04:16:34;98200.31;;;10.77;93.70
28181;BME280;15464;50.988;10.318;2022-09-16T04:19:00;98200.09;;;10.71;93.76
28181;BME280;15464;50.988;10.318;2022-09-16T04:21:27;98194.78;;;10.71;93.84
28181;BME280;15464;50.988;10.318;2022-09-16T04:23:54;98196.50;;;10.62;94.31
28181;BME280;15464;50.988;10.318;2022-09-16T04:26:21;98196.97;;;10.58;94.49
28181;BME280;15464;50.988;10.318;2022-09-16T04:28:51;98199.31;;;10.61;94.38
28181;BME280;15464;50.988;10.318;2022-09-16T04:31:17;98202.66;;;10.63;94.22
28181;BME280;15464;50.988;10.318;2022-09-16T04:33:44;98199.16;;;10.62;93.84
28181;BME280;15464;50.988;10.318;2022-09-16T04:36:13;98197.50;;;10.61;93.88
28181;BME280;15464;50.988;10.318;2022-09-16T04:38:41;98201.00;;;10.62;93.48
28181;BME280;15464;50.988;10.318;2022-09-16T04:41:13;98194.03;;;10.61;94.07
28181;BME280;15464;50.988;10.318;2022-09-16T04:43:40;98197.34;;;10.63;93.33
28181;BME280;15464;50.988;10.318;2022-09-16T04:46:07;98195.84;;;10.60;93.49
28181;BME280;15464;50.988;10.318;2022-09-16T04:48:35;98195.00;;;10.60;93.59
28181;BME280;15464;50.988;10.318;2022-09-16T04:51:06;98192.63;;;10.57;93.63
28181;BME280;15464;50.988;10.318;2022-09-16T04:53:35;98197.94;;;10.57;93.79
28181;BME280;15464;50.988;10.318;2022-09-16T04:56:06;98202.41;;;10.56;94.01
28181;BME280;15464;50.988;10.318;2022-09-16T04:58:34;98201.34;;;10.49;94.04
28181;BME280;15464;50.988;10.318;2022-09-16T05:01:19;98206.47;;;10.50;94.09
28181;BME280;15464;50.988;10.318;2022-09-16T05:03:48;98204.44;;;10.44;94.14
28181;BME280;15464;50.988;10.318;2022-09-16T05:06:26;98200.09;;;10.43;93.72
28181;BME280;15464;50.988;10.318;2022-09-16T05:08:53;98205.56;;;10.42;94.16
28181;BME280;15464;50.988;10.318;2022-09-16T05:11:22;98208.06;;;10.43;93.51
28181;BME280;15464;50.988;10.318;2022-09-16T05:13:49;98205.34;;;10.35;94.27
28181;BME280;15464;50.988;10.318;2022-09-16T05:16:19;98203.66;;;10.34;93.91
28181;BME280;15464;50.988;10.318;2022-09-16T05:18:47;98201.53;;;10.38;94.07
28181;BME280;15464;50.988;10.318;2022-09-16T05:21:19;98202.22;;;10.40;93.92
28181;BME280;15464;50.988;10.318;2022-09-16T05:23:47;98204.19;;;10.38;93.65
28181;BME280;15464;50.988;10.318;2022-09-16T05:26:18;98204.03;;;10.39;93.60
28181;BME280;15464;50.988;10.318;2022-09-16T05:28:45;98203.34;;;10.37;93.56
28181;BME280;15464;50.988;10.318;2022-09-16T05:31:16;98204.19;;;10.38;93.58
28181;BME280;15464;50.988;10.318;2022-09-16T05:33:45;98206.84;;;10.38;93.39
28181;BME280;15464;50.988;10.318;2022-09-16T05:36:14;98205.63;;;10.32;93.38
28181;BME280;15464;50.988;10.318;2022-09-16T05:38:41;98213.72;;;10.31;93.75
28181;BME280;15464;50.988;10.318;2022-09-16T05:41:28;98210.91;;;10.32;93.31
28181;BME280;15464;50.988;10.318;2022-09-16T05:43:57;98211.38;;;10.28;93.59
28181;BME280;15464;50.988;10.318;2022-09-16T05:46:24;98203.69;;;10.25;93.69
28181;BME280;15464;50.988;10.318;2022-09-16T05:48:51;98206.91;;;10.28;94.32
28181;BME280;15464;50.988;10.318;2022-09-16T05:51:20;98209.25;;;10.31;93.69
28181;BME280;15464;50.988;10.318;2022-09-16T05:53:48;98206.59;;;10.31;93.64
28181;BME280;15464;50.988;10.318;2022-09-16T05:56:17;98210.25;;;10.30;93.21
28181;BME280;15464;50.988;10.318;2022-09-16T05:58:45;98213.19;;;10.27;93.12
28181;BME280;15464;50.988;10.318;2022-09-16T06:01:19;98210.91;;;10.32;92.96
28181;BME280;15464;50.988;10.318;2022-09-16T06:03:48;98214.25;;;10.34;92.55
28181;BME280;15464;50.988;10.318;2022-09-16T06:08:45;98222.91;;;10.36;92.41
28181;BME280;15464;50.988;10.318;2022-09-16T06:11:11;98217.03;;;10.42;92.00
28181;BME280;15464;50.988;10.318;2022-09-16T06:13:39;98213.22;;;10.45;91.88
28181;BME280;15464;50.988;10.318;2022-09-16T06:16:07;98219.81;;;10.41;91.89
28181;BME280;15464;50.988;10.318;2022-09-16T06:18:35;98226.09;;;10.40;92.56
28181;BME280;15464;50.988;10.318;2022-09-16T06:21:08;98225.25;;;10.39;91.62
28181;BME280;15464;50.988;10.318;2022-09-16T06:23:36;98225.63;;;10.44;91.84
28181;BME280;15464;50.988;10.318;2022-09-16T06:26:05;98214.75;;;10.47;91.15
28181;BME280;15464;50.988;10.318;2022-09-16T06:28:33;98220.06;;;10.47;91.00
28181;BME280;15464;50.988;10.318;2022-09-16T06:31:05;98213.59;;;10.50;91.30
28181;BME280;15464;50.988;10.318;2022-09-16T06:33:33;98213.19;;;10.55;91.22
28181;BME280;15464;50.988;10.318;2022-09-16T06:36:05;98213.59;;;10.50;91.18
28181;BME280;15464;50.988;10.318;2022-09-16T06:38:32;98216.13;;;10.51;90.96
28181;BME280;15464;50.988;10.318;2022-09-16T06:41:04;98216.13;;;10.51;90.65
28181;BME280;15464;50.988;10.318;2022-09-16T06:43:31;98213.56;;;10.60;90.16
28181;BME280;15464;50.988;10.318;2022-09-16T06:45:59;98214.63;;;10.67;90.55
28181;BME280;15464;50.988;10.318;2022-09-16T06:48:28;98210.41;;;10.74;90.12
28181;BME280;15464;50.988;10.318;2022-09-16T06:50:59;98206.47;;;10.78;89.78
28181;BME280;15464;50.988;10.318;2022-09-16T06:53:26;98206.59;;;10.76;90.11
28181;BME280;15464;50.988;10.318;2022-09-16T06:55:53;98206.09;;;10.73;88.99
28181;BME280;15464;50.988;10.318;2022-09-16T06:58:20;98201.16;;;10.78;88.60
28181;BME280;15464;50.988;10.318;2022-09-16T07:00:47;98207.22;;;10.88;88.22
28181;BME280;15464;50.988;10.318;2022-09-16T07:03:14;98201.03;;;10.97;87.18
28181;BME280;15464;50.988;10.318;2022-09-16T07:05:40;98201.16;;;11.13;87.48
28181;BME280;15464;50.988;10.318;2022-09-16T07:08:07;98194.88;;;11.14;86.56
28181;BME280;15464;50.988;10.318;2022-09-16T07:10:33;98192.69;;;11.10;86.27
28181;BME280;15464;50.988;10.318;2022-09-16T07:13:00;98201.16;;;11.13;86.28
28181;BME280;15464;50.988;10.318;2022-09-16T07:15:26;98199.81;;;11.09;86.18
28181;BME280;15464;50.988;10.318;2022-09-16T07:17:53;98201.16;;;11.13;85.27
28181;BME280;15464;50.988;10.318;2022-09-16T07:20:20;98203.28;;;11.27;86.13
28181;BME280;15464;50.988;10.318;2022-09-16T07:22:47;98211.31;;;11.36;85.52
28181;BME280;15464;50.988;10.318;2022-09-16T07:25:16;98202.03;;;11.40;85.50
28181;BME280;15464;50.988;10.318;2022-09-16T07:27:42;98202.47;;;11.53;85.83
28181;BME280;15464;50.988;10.318;2022-09-16T07:30:09;98196.53;;;11.59;85.79
28181;BME280;15464;50.988;10.318;2022-09-16T07:32:36;98205.81;;;11.55;84.98
28181;BME280;15464;50.988;10.318;2022-09-16T07:35:04;98206.34;;;11.58;84.52
28181;BME280;15464;50.988;10.318;2022-09-16T07:37:30;98212.47;;;11.59;84.29
28181;BME280;15464;50.988;10.318;2022-09-16T07:39:57;98211.66;;;11.58;84.70
28181;BME280;15464;50.988;10.318;2022-09-16T07:42:24;98216.44;;;11.55;84.05
28181;BME280;15464;50.988;10.318;2022-09-16T07:44:50;98220.81;;;11.64;83.38
28181;BME280;15464;50.988;10.318;2022-09-16T07:47:17;98212.91;;;11.72;83.25
28181;BME280;15464;50.988;10.318;2022-09-16T07:49:47;98209.28;;;11.73;82.77
28181;BME280;15464;50.988;10.318;2022-09-16T07:52:14;98210.34;;;11.80;83.69
28181;BME280;15464;50.988;10.318;2022-09-16T07:54:42;98210.84;;;11.84;83.36
28181;BME280;15464;50.988;10.318;2022-09-16T07:57:08;98210.22;;;11.90;82.49
28181;BME280;15464;50.988;10.318;2022-09-16T07:59:35;98213.38;;;11.93;82.31
28181;BME280;15464;50.988;10.318;2022-09-16T08:02:02;98203.97;;;11.99;81.67
28181;BME280;15464;50.988;10.318;2022-09-16T08:04:29;98206.56;;;12.17;82.23
28181;BME280;15464;50.988;10.318;2022-09-16T08:06:55;98201.88;;;12.10;80.36
28181;BME280;15464;50.988;10.318;2022-09-16T08:09:22;98211.66;;;12.10;80.35
28181;BME280;15464;50.988;10.318;2022-09-16T08:12:08;98207.25;;;12.27;80.58
28181;BME280;15464;50.988;10.318;2022-09-16T08:14:36;98205.47;;;12.35;80.62
28181;BME280;15464;50.988;10.318;2022-09-16T08:17:03;98195.88;;;12.42;80.59
28181;BME280;15464;50.988;10.318;2022-09-16T08:19:30;98206.69;;;12.49;79.97
28181;BME280;15464;50.988;10.318;2022-09-16T08:21:56;98207.50;;;12.49;79.97
28181;BME280;15464;50.988;10.318;2022-09-16T08:24:23;98207.03;;;12.62;79.54
28181;BME280;15464;50.988;10.318;2022-09-16T08:26:50;98210.53;;;12.63;78.46
28181;BME280;15464;50.988;10.318;2022-09-16T08:29:17;98207.88;;;12.63;78.09
28181;BME280;15464;50.988;10.318;2022-09-16T08:31:44;98209.88;;;12.61;77.64
28181;BME280;15464;50.988;10.318;2022-09-16T08:34:11;98211.06;;;12.66;78.08
28181;BME280;15464;50.988;10.318;2022-09-16T08:36:37;98209.75;;;12.70;77.16
28181;BME280;15464;50.988;10.318;2022-09-16T08:39:04;98211.41;;;12.71;75.91
28181;BME280;15464;50.988;10.318;2022-09-16T08:49:53;98216.81;;;13.04;74.31
28181;BME280;15464;50.988;10.318;2022-09-16T08:52:28;98217.47;;;12.98;73.38
28181;BME280;15464;50.988;10.318;2022-09-16T08:54:58;98221.44;;;12.93;73.32
28181;BME280;15464;50.988;10.318;2022-09-16T08:57:28;98218.94;;;13.00;73.62
28181;BME280;15464;50.988;10.318;2022-09-16T09:00:00;98219.13;;;12.99;73.14
28181;BME280;15464;50.988;10.318;2022-09-16T09:02:50;98227.88;;;12.75;71.52
28181;BME280;15464;50.988;10.318;2022-09-16T09:05:26;98225.22;;;12.75;71.85
28181;BME280;15464;50.988;10.318;2022-09-16T09:10:53;98214.97;;;13.04;69.93
28181;BME280;15464;50.988;10.318;2022-09-16T09:27:16;98198.53;;;13.57;66.73
28181;BME280;15464;50.988;10.318;2022-09-16T09:38:33;98194.16;;;13.81;66.06
28181;BME280;15464;50.988;10.318;2022-09-16T09:41:11;98199.31;;;13.82;66.52
28181;BME280;15464;50.988;10.318;2022-09-16T09:43:47;98189.81;;;13.88;65.75
28181;BME280;15464;50.988;10.318;2022-09-16T09:49:09;98184.84;;;13.85;65.42
28181;BME280;15464;50.988;10.318;2022-09-16T09:51:39;98185.94;;;14.06;64.83
28181;BME280;15464;50.988;10.318;2022-09-16T09:54:28;98174.28;;;14.07;64.39
28181;BME280;15464;50.988;10.318;2022-09-16T09:57:00;98168.69;;;14.25;64.78
28181;BME280;15464;50.988;10.318;2022-09-16T10:02:26;98161.00;;;14.38;62.02
28181;BME280;15464;50.988;10.318;2022-09-16T10:04:53;98155.16;;;14.35;62.33
28181;BME280;15464;50.988;10.318;2022-09-16T10:07:22;98157.34;;;14.39;61.67
28181;BME280;15464;50.988;10.318;2022-09-16T10:10:18;98174.72;;;14.19;61.91
28181;BME280;15464;50.988;10.318;2022-09-16T10:12:46;98177.38;;;13.56;67.49
28181;BME280;15464;50.988;10.318;2022-09-16T10:15:26;98209.81;;;13.03;74.43
28181;BME280;15464;50.988;10.318;2022-09-16T10:17:54;98205.72;;;12.58;77.71
28181;BME280;15464;50.988;10.318;2022-09-16T10:22:59;98224.78;;;11.60;83.60
28181;BME280;15464;50.988;10.318;2022-09-16T10:25:26;98226.31;;;11.45;81.85
28181;BME280;15464;50.988;10.318;2022-09-16T10:28:16;98233.22;;;11.38;84.72
28181;BME280;15464;50.988;10.318;2022-09-16T10:30:50;98230.66;;;11.28;85.76
28181;BME280;15464;50.988;10.318;2022-09-16T10:33:27;98223.78;;;11.17;88.25
28181;BME280;15464;50.988;10.318;2022-09-16T10:35:58;98217.59;;;11.35;87.72
28181;BME280;15464;50.988;10.318;2022-09-16T10:38:35;98217.06;;;11.49;87.77
28181;BME280;15464;50.988;10.318;2022-09-16T10:41:24;98214.16;;;11.60;87.96
28181;BME280;15464;50.988;10.318;2022-09-16T10:43:55;98212.91;;;11.72;87.92
28181;BME280;15464;50.988;10.318;2022-09-16T10:46:22;98208.06;;;11.93;87.38
28181;BME280;15464;50.988;10.318;2022-09-16T10:48:50;98207.00;;;12.04;87.03
28181;BME280;15464;50.988;10.318;2022-09-16T10:51:22;98195.78;;;12.26;88.31
28181;BME280;15464;50.988;10.318;2022-09-16T10:54:22;98193.81;;;12.28;86.60
28181;BME280;15464;50.988;10.318;2022-09-16T10:56:50;98196.69;;;12.43;87.98
28181;BME280;15464;50.988;10.318;2022-09-16T10:59:17;98184.41;;;12.42;86.51
28181;BME280;15464;50.988;10.318;2022-09-16T11:04:51;98191.50;;;12.91;86.76
28181;BME280;15464;50.988;10.318;2022-09-16T11:07:47;98188.66;;;12.93;88.80
28181;BME280;15464;50.988;10.318;2022-09-16T11:16:34;98191.38;;;13.33;87.86
28181;BME280;15464;50.988;10.318;2022-09-16T11:18:56;98185.38;;;13.31;84.36
28181;BME280;15464;50.988;10.318;2022-09-16T11:24:22;98184.91;;;13.36;82.48
28181;BME280;15464;50.988;10.318;2022-09-16T11:35:00;98166.66;;;13.88;81.92
28181;BME280;15464;50.988;10.318;2022-09-16T11:43:18;98168.94;;;14.55;76.97
28181;BME280;15464;50.988;10.318;2022-09-16T11:48:49;98166.44;;;14.84;71.38
28181;BME280;15464;50.988;10.318;2022-09-16T11:57:09;98161.50;;;14.73;72.80
28181;BME280;15464;50.988;10.318;2022-09-16T12:05:13;98152.56;;;14.19;71.16
28181;BME280;15464;50.988;10.318;2022-09-16T12:07:49;98151.84;;;14.25;71.46
28181;BME280;15464;50.988;10.318;2022-09-16T12:10:26;98148.13;;;14.03;71.25
28181;BME280;15464;50.988;10.318;2022-09-16T12:13:08;98155.53;;;14.63;71.09
28181;BME280;15464;50.988;10.318;2022-09-16T12:15:42;98151.13;;;15.23;70.55
28181;BME280;15464;50.988;10.318;2022-09-16T12:21:08;98135.19;;;15.53;66.72
28181;BME280;15464;50.988;10.318;2022-09-16T12:23:44;98136.03;;;15.83;64.46
28181;BME280;15464;50.988;10.318;2022-09-16T12:28:47;98115.75;;;15.88;61.68
28181;BME280;15464;50.988;10.318;2022-09-16T12:34:19;98122.19;;;16.59;62.36
28181;BME280;15464;50.988;10.318;2022-09-16T12:36:53;98120.59;;;17.01;62.16
28181;BME280;15464;50.988;10.318;2022-09-16T12:39:23;98123.53;;;17.06;57.92
28181;BME280;15464;50.988;10.318;2022-09-16T12:47:52;98116.84;;;17.65;57.08
28181;BME280;15464;50.988;10.318;2022-09-16T12:50:47;98105.19;;;17.80;57.02
28181;BME280;15464;50.988;10.318;2022-09-16T12:57:12;98119.31;;;17.18;54.97
28181;BME280;15464;50.988;10.318;2022-09-16T12:59:53;98106.47;;;17.34;54.38
28181;BME280;15464;50.988;10.318;2022-09-16T13:02:31;98107.50;;;17.33;53.22
28181;BME280;15464;50.988;10.318;2022-09-16T13:05:10;98101.63;;;17.72;51.73
28181;BME280;15464;50.988;10.318;2022-09-16T13:07:38;98094.03;;;17.83;53.38
28181;BME280;15464;50.988;10.318;2022-09-16T13:10:12;98098.94;;;17.72;51.11
28181;BME280;15464;50.988;10.318;2022-09-16T13:12:41;98094.47;;;17.58;50.36
28181;BME280;15464;50.988;10.318;2022-09-16T13:15:31;98090.53;;;17.54;48.28
28181;BME280;15464;50.988;10.318;2022-09-16T13:20:49;98078.88;;;18.03;50.63
28181;BME280;15464;50.988;10.318;2022-09-16T13:23:21;98074.47;;;18.43;48.01
28181;BME280;15464;50.988;10.318;2022-09-16T13:25:50;98087.38;;;18.61;49.38
28181;BME280;15464;50.988;10.318;2022-09-16T13:34:00;98080.63;;;18.24;48.72
28181;BME280;15464;50.988;10.318;2022-09-16T13:36:32;98067.03;;;18.38;49.12
28181;BME280;15464;50.988;10.318;2022-09-16T13:39:01;98068.34;;;18.56;47.84
28181;BME280;15464;50.988;10.318;2022-09-16T13:41:45;98072.75;;;18.89;45.60
28181;BME280;15464;50.988;10.318;2022-09-16T13:49:50;98066.84;;;17.86;44.25
28181;BME280;15464;50.988;10.318;2022-09-16T13:54:50;98072.66;;;17.33;47.59
28181;BME280;15464;50.988;10.318;2022-09-16T13:57:57;98075.91;;;17.57;46.99
28181;BME280;15464;50.988;10.318;2022-09-16T14:00:36;98076.66;;;17.72;45.49
28181;BME280;15464;50.988;10.318;2022-09-16T14:06:09;98069.03;;;18.17;45.85
28181;BME280;15464;50.988;10.318;2022-09-16T14:11:34;98064.72;;;17.81;46.75
28181;BME280;15464;50.988;10.318;2022-09-16T14:14:11;98071.25;;;17.65;47.66
28181;BME280;15464;50.988;10.318;2022-09-16T14:17:02;98068.13;;;17.62;46.87
28181;BME280;15464;50.988;10.318;2022-09-16T14:19:33;98057.47;;;17.47;47.35
28181;BME280;15464;50.988;10.318;2022-09-16T14:22:04;98079.19;;;16.82;47.21
28181;BME280;15464;50.988;10.318;2022-09-16T14:24:35;98072.59;;;16.42;47.61
28181;BME280;15464;50.988;10.318;2022-09-16T14:27:03;98068.84;;;16.22;49.01
28181;BME280;15464;50.988;10.318;2022-09-16T14:29:30;98071.84;;;15.97;49.42
28181;BME280;15464;50.988;10.318;2022-09-16T14:31:57;98070.94;;;16.05;50.04
28181;BME280;15464;50.988;10.318;2022-09-16T14:34:33;98062.34;;;16.09;48.79
28181;BME280;15464;50.988;10.318;2022-09-16T14:37:03;98064.13;;;15.58;48.71
28181;BME280;15464;50.988;10.318;2022-09-16T14:39:31;98064.56;;;15.77;50.47
28181;BME280;15464;50.988;10.318;2022-09-16T14:42:00;98062.94;;;15.61;49.72
28181;BME280;15464;50.988;10.318;2022-09-16T14:44:35;98067.34;;;15.54;50.27
28181;BME280;15464;50.988;10.318;2022-09-16T14:50:12;98066.63;;;15.60;51.48
28181;BME280;15464;50.988;10.318;2022-09-16T14:52:40;98063.00;;;15.53;51.41
28181;BME280;15464;50.988;10.318;2022-09-16T14:55:19;98071.03;;;15.53;50.17
28181;BME280;15464;50.988;10.318;2022-09-16T14:57:46;98069.97;;;15.39;51.89
28181;BME280;15464;50.988;10.318;2022-09-16T15:00:15;98075.38;;;15.54;51.89
28181;BME280;15464;50.988;10.318;2022-09-16T15:02:46;98052.25;;;15.61;51.76
28181;BME280;15464;50.988;10.318;2022-09-16T15:05:26;98051.94;;;15.85;52.47
28181;BME280;15464;50.988;10.318;2022-09-16T15:08:07;98055.44;;;15.86;52.13
28181;BME280;15464;50.988;10.318;2022-09-16T15:10:43;98066.16;;;15.86;52.09
28181;BME280;15464;50.988;10.318;2022-09-16T15:13:20;98071.69;;;15.84;50.01
28181;BME280;15464;50.988;10.318;2022-09-16T15:15:50;98066.97;;;15.86;50.13
28181;BME280;15464;50.988;10.318;2022-09-16T15:18:22;98068.28;;;15.61;50.27
28181;BME280;15464;50.988;10.318;2022-09-16T15:23:28;98075.22;;;15.32;46.42
28181;BME280;15464;50.988;10.318;2022-09-16T15:25:57;98073.28;;;15.41;46.81
28181;BME280;15464;50.988;10.318;2022-09-16T15:28:25;98070.25;;;15.29;46.43
28181;BME280;15464;50.988;10.318;2022-09-16T15:30:53;98071.44;;;15.27;48.10
28181;BME280;15464;50.988;10.318;2022-09-16T15:33:36;98082.13;;;15.27;47.30
28181;BME280;15464;50.988;10.318;2022-09-16T15:36:11;98077.38;;;15.14;48.43
28181;BME280;15464;50.988;10.318;2022-09-16T15:38:56;98079.50;;;15.19;48.56
28181;BME280;15464;50.988;10.318;2022-09-16T15:41:23;98067.16;;;15.18;48.16
28181;BME280;15464;50.988;10.318;2022-09-16T15:43:50;98076.66;;;15.20;49.31
28181;BME280;15464;50.988;10.318;2022-09-16T15:46:19;98080.22;;;15.36;49.30
28181;BME280;15464;50.988;10.318;2022-09-16T15:48:51;98076.66;;;15.20;48.15
28181;BME280;15464;50.988;10.318;2022-09-16T15:51:33;98073.16;;;15.05;49.17
28181;BME280;15464;50.988;10.318;2022-09-16T15:54:28;98095.00;;;14.86;49.01
28181;BME280;15464;50.988;10.318;2022-09-16T15:57:05;98072.59;;;14.87;49.00
28181;BME280;15464;50.988;10.318;2022-09-16T16:02:39;98073.03;;;14.76;48.59
28181;BME280;15464;50.988;10.318;2022-09-16T16:05:12;98080.75;;;14.71;48.81
28181;BME280;15464;50.988;10.318;2022-09-16T16:07:43;98072.88;;;14.55;48.42
28181;BME280;15464;50.988;10.318;2022-09-16T16:10:13;98081.47;;;14.42;47.88
28181;BME280;15464;50.988;10.318;2022-09-16T16:12:40;98075.97;;;14.35;47.74
28181;BME280;15464;50.988;10.318;2022-09-16T16:15:07;98074.78;;;14.38;48.05
28181;BME280;15464;50.988;10.318;2022-09-16T16:17:33;98067.63;;;14.38;47.51
28181;BME280;15464;50.988;10.318;2022-09-16T16:20:00;98074.28;;;14.42;47.38